createdAt,value
2019-04-01T00:00:16.921Z,1008.65
2019-04-01T00:01:16.926Z,1008.62
2019-04-01T00:02:16.932Z,1008.58
2019-04-01T00:03:16.926Z,1008.59
2019-04-01T00:04:16.916Z,1008.63
2019-04-01T00:05:16.907Z,1008.59
2019-04-01T00:06:16.883Z,1008.57
2019-04-01T00:07:16.902Z,1008.61
2019-04-01T00:08:16.891Z,1008.61
2019-04-01T00:09:16.886Z,1008.57
2019-04-01T00:10:16.907Z,1008.62
2019-04-01T00:11:16.872Z,1008.59
2019-04-01T00:12:16.869Z,1008.62
2019-04-01T00:13:16.869Z,1008.60
2019-04-01T00:14:16.857Z,1008.59
2019-04-01T00:15:16.842Z,1008.58
2019-04-01T00:16:16.835Z,1008.58
2019-04-01T00:17:16.822Z,1008.64
2019-04-01T00:18:16.827Z,1008.62
2019-04-01T00:19:16.813Z,1008.62
2019-04-01T00:20:16.809Z,1008.58
2019-04-01T00:21:17.805Z,1008.60
2019-04-01T00:22:16.821Z,1008.61
2019-04-01T00:23:16.801Z,1008.60
2019-04-01T00:24:16.816Z,1008.61
2019-04-01T00:25:16.804Z,1008.62
2019-04-01T00:26:16.790Z,1008.58
2019-04-01T00:27:16.781Z,1008.62
2019-04-01T00:28:16.779Z,1008.61
2019-04-01T00:29:16.804Z,1008.52
2019-04-01T00:30:16.765Z,1008.62
2019-04-01T00:31:16.771Z,1008.59
2019-04-01T00:32:16.741Z,1008.64
2019-04-01T00:33:16.736Z,1008.61
2019-04-01T00:34:16.735Z,1008.63
2019-04-01T00:35:16.756Z,1008.63
2019-04-01T00:36:16.711Z,1008.63
2019-04-01T00:37:16.743Z,1008.56
2019-04-01T00:38:16.695Z,1008.66
2019-04-01T00:39:16.689Z,1008.57
2019-04-01T00:40:16.710Z,1008.59
2019-04-01T00:41:16.716Z,1008.65
2019-04-01T00:42:16.685Z,1008.60
2019-04-01T00:43:16.681Z,1008.60
2019-04-01T00:44:16.683Z,1008.62
2019-04-01T00:45:16.698Z,1008.62
2019-04-01T00:46:16.683Z,1008.63
2019-04-01T00:47:16.674Z,1008.52
2019-04-01T00:48:16.679Z,1008.58
2019-04-01T00:49:16.655Z,1008.54
2019-04-01T00:50:16.648Z,1008.56
2019-04-01T00:51:16.654Z,1008.61
2019-04-01T00:52:16.628Z,1008.64
2019-04-01T00:53:18.069Z,1008.59
2019-04-01T00:54:17.640Z,1008.61
2019-04-01T00:55:16.633Z,1008.59
2019-04-01T00:56:16.657Z,1008.61
2019-04-01T00:57:16.616Z,1008.56
2019-04-01T00:58:16.612Z,1008.59
2019-04-01T00:59:16.609Z,1008.60
2019-04-01T01:00:16.610Z,1008.62
2019-04-01T01:01:16.598Z,1008.65
2019-04-01T01:02:16.570Z,1008.61
2019-04-01T01:03:16.594Z,1008.60
2019-04-01T01:04:16.575Z,1008.64
2019-04-01T01:05:16.546Z,1008.62
2019-04-01T01:06:16.551Z,1008.61
2019-04-01T01:07:16.562Z,1008.56
2019-04-01T01:08:16.529Z,1008.54
2019-04-01T01:09:16.522Z,1008.59
2019-04-01T01:10:16.518Z,1008.62
2019-04-01T01:11:16.519Z,1008.57
2019-04-01T01:12:16.505Z,1008.59
2019-04-01T01:13:16.487Z,1008.51
2019-04-01T01:14:16.483Z,1008.57
2019-04-01T01:15:16.474Z,1008.58
2019-04-01T01:16:16.471Z,1008.50
2019-04-01T01:17:16.476Z,1008.50
2019-04-01T01:18:16.459Z,1008.54
2019-04-01T01:19:16.463Z,1008.50
2019-04-01T01:20:16.444Z,1008.51
2019-04-01T01:21:16.442Z,1008.50
2019-04-01T01:22:16.521Z,1008.45
2019-04-01T01:23:16.426Z,1008.47
2019-04-01T01:24:16.424Z,1008.51
2019-04-01T01:25:16.415Z,1008.46
2019-04-01T01:26:16.403Z,1008.50
2019-04-01T01:27:16.391Z,1008.53
2019-04-01T01:28:16.413Z,1008.55
2019-04-01T01:29:16.398Z,1008.50
2019-04-01T01:30:16.407Z,1008.47
2019-04-01T01:31:16.394Z,1008.49
2019-04-01T01:32:16.381Z,1008.44
2019-04-01T01:33:16.404Z,1008.42
2019-04-01T01:34:16.359Z,1008.41
2019-04-01T01:35:16.353Z,1008.44
2019-04-01T01:36:16.346Z,1008.44
2019-04-01T01:37:16.347Z,1008.37
2019-04-01T01:38:16.354Z,1008.42
2019-04-01T01:39:16.329Z,1008.39
2019-04-01T01:40:16.325Z,1008.34
2019-04-01T01:41:16.320Z,1008.34
2019-04-01T01:42:16.332Z,1008.32
2019-04-01T01:43:16.317Z,1008.37
2019-04-01T01:44:16.329Z,1008.40
2019-04-01T01:45:16.289Z,1008.39
2019-04-01T01:46:16.298Z,1008.33
2019-04-01T01:47:16.271Z,1008.29
2019-04-01T01:48:16.263Z,1008.30
2019-04-01T01:49:16.272Z,1008.29
2019-04-01T01:50:16.259Z,1008.29
2019-04-01T01:51:16.247Z,1008.31
2019-04-01T01:52:16.229Z,1008.30
2019-04-01T01:53:16.241Z,1008.29
2019-04-01T01:54:16.381Z,1008.25
2019-04-01T01:55:16.209Z,1008.24
2019-04-01T01:56:16.208Z,1008.27
2019-04-01T01:57:16.199Z,1008.26
2019-04-01T01:58:16.205Z,1008.20
2019-04-01T01:59:16.174Z,1008.23
2019-04-01T02:00:16.176Z,1008.22
2019-04-01T02:01:16.165Z,1008.18
2019-04-01T02:02:16.151Z,1008.20
2019-04-01T02:03:16.141Z,1008.18
2019-04-01T02:04:16.171Z,1008.18
2019-04-01T02:05:16.137Z,1008.19
2019-04-01T02:06:16.120Z,1008.19
2019-04-01T02:07:16.120Z,1008.15
2019-04-01T02:08:16.103Z,1008.16
2019-04-01T02:09:16.098Z,1008.18
2019-04-01T02:10:16.112Z,1008.09
2019-04-01T02:11:16.079Z,1008.11
2019-04-01T02:12:16.080Z,1008.11
2019-04-01T02:13:16.071Z,1008.12
2019-04-01T02:14:16.067Z,1008.13
2019-04-01T02:15:16.074Z,1008.13
2019-04-01T02:16:16.051Z,1008.07
2019-04-01T02:17:16.065Z,1008.15
2019-04-01T02:18:16.043Z,1008.16
2019-04-01T02:19:16.037Z,1008.15
2019-04-01T02:20:16.028Z,1008.15
2019-04-01T02:21:16.049Z,1008.13
2019-04-01T02:22:16.025Z,1008.13
2019-04-01T02:23:16.006Z,1008.19
2019-04-01T02:24:16.001Z,1008.13
2019-04-01T02:25:16.001Z,1008.15
2019-04-01T02:26:15.997Z,1008.12
2019-04-01T02:27:16.022Z,1008.11
2019-04-01T02:28:15.990Z,1008.15
2019-04-01T02:29:15.985Z,1008.15
2019-04-01T02:30:15.976Z,1008.12
2019-04-01T02:31:16.068Z,1008.12
2019-04-01T02:32:15.989Z,1008.17
2019-04-01T02:33:15.967Z,1008.17
2019-04-01T02:34:15.955Z,1008.12
2019-04-01T02:35:15.939Z,1008.13
2019-04-01T02:36:15.929Z,1008.11
2019-04-01T02:37:15.934Z,1008.12
2019-04-01T02:38:15.918Z,1008.16
2019-04-01T02:39:15.997Z,1008.10
2019-04-01T02:40:15.904Z,1008.10
2019-04-01T02:41:15.897Z,1008.12
2019-04-01T02:42:15.889Z,1008.07
2019-04-01T02:43:15.924Z,1008.11
2019-04-01T02:44:15.901Z,1008.16
2019-04-01T02:45:15.887Z,1008.15
2019-04-01T02:46:15.889Z,1008.17
2019-04-01T02:47:15.881Z,1008.16
2019-04-01T02:48:15.880Z,1008.13
2019-04-01T02:49:15.888Z,1008.14
2019-04-01T02:50:15.872Z,1008.16
2019-04-01T02:51:15.845Z,1008.13
2019-04-01T02:52:15.829Z,1008.13
2019-04-01T02:53:15.840Z,1008.14
2019-04-01T02:54:15.880Z,1008.11
2019-04-01T02:55:15.815Z,1008.16
2019-04-01T02:56:15.804Z,1008.17
2019-04-01T02:57:15.792Z,1008.17
2019-04-01T02:58:15.803Z,1008.14
2019-04-01T02:59:15.819Z,1008.11
2019-04-01T03:00:15.793Z,1008.15
2019-04-01T03:01:15.772Z,1008.16
2019-04-01T03:02:15.773Z,1008.14
2019-04-01T03:03:15.766Z,1008.14
2019-04-01T03:04:15.760Z,1008.16
2019-04-01T03:05:15.753Z,1008.14
2019-04-01T03:06:15.756Z,1008.13
2019-04-01T03:07:15.766Z,1008.14
2019-04-01T03:08:15.734Z,1008.17
2019-04-01T03:09:15.736Z,1008.14
2019-04-01T03:10:15.725Z,1008.12
2019-04-01T03:11:15.701Z,1008.14
2019-04-01T03:12:15.699Z,1008.19
2019-04-01T03:13:15.702Z,1008.14
2019-04-01T03:14:15.679Z,1008.18
2019-04-01T03:15:15.709Z,1008.18
2019-04-01T03:16:15.664Z,1008.20
2019-04-01T03:17:15.670Z,1008.15
2019-04-01T03:18:15.645Z,1008.22
2019-04-01T03:19:15.653Z,1008.24
2019-04-01T03:20:15.635Z,1008.23
2019-04-01T03:21:15.621Z,1008.23
2019-04-01T03:22:15.620Z,1008.15
2019-04-01T03:23:15.610Z,1008.16
2019-04-01T03:24:15.601Z,1008.22
2019-04-01T03:25:15.603Z,1008.29
2019-04-01T03:26:16.591Z,1008.22
2019-04-01T03:27:17.418Z,1008.26
2019-04-01T03:28:16.567Z,1008.20
2019-04-01T03:29:15.575Z,1008.25
2019-04-01T03:30:15.563Z,1008.24
2019-04-01T03:31:15.553Z,1008.23
2019-04-01T03:32:15.535Z,1008.25
2019-04-01T03:33:15.554Z,1008.27
2019-04-01T03:34:15.554Z,1008.21
2019-04-01T03:35:15.599Z,1008.25
2019-04-01T03:36:15.523Z,1008.22
2019-04-01T03:37:15.505Z,1008.19
2019-04-01T03:38:15.494Z,1008.20
2019-04-01T03:39:15.481Z,1008.19
2019-04-01T03:40:15.491Z,1008.18
2019-04-01T03:41:15.492Z,1008.25
2019-04-01T03:42:15.477Z,1008.19
2019-04-01T03:43:15.472Z,1008.24
2019-04-01T03:44:15.470Z,1008.20
2019-04-01T03:45:15.462Z,1008.21
2019-04-01T03:46:15.456Z,1008.18
2019-04-01T03:47:15.449Z,1008.16
2019-04-01T03:48:15.439Z,1008.14
2019-04-01T03:49:15.438Z,1008.19
2019-04-01T03:50:15.425Z,1008.23
2019-04-01T03:51:15.418Z,1008.23
2019-04-01T03:52:15.404Z,1008.19
2019-04-01T03:53:15.391Z,1008.16
2019-04-01T03:54:15.387Z,1008.14
2019-04-01T03:55:15.397Z,1008.20
2019-04-01T03:56:15.374Z,1008.21
2019-04-01T03:57:15.379Z,1008.15
2019-04-01T03:58:15.378Z,1008.20
2019-04-01T03:59:15.365Z,1008.19
2019-04-01T04:00:15.363Z,1008.15
2019-04-01T04:01:15.350Z,1008.15
2019-04-01T04:02:15.370Z,1008.13
2019-04-01T04:03:15.336Z,1008.13
2019-04-01T04:04:15.333Z,1008.17
2019-04-01T04:05:15.325Z,1008.17
2019-04-01T04:06:15.335Z,1008.21
2019-04-01T04:07:15.326Z,1008.17
2019-04-01T04:08:15.339Z,1008.18
2019-04-01T04:09:15.304Z,1008.16
2019-04-01T04:10:15.309Z,1008.11
2019-04-01T04:11:15.312Z,1008.12
2019-04-01T04:12:15.322Z,1008.14
2019-04-01T04:13:15.323Z,1008.15
2019-04-01T04:14:15.286Z,1008.23
2019-04-01T04:15:15.297Z,1008.19
2019-04-01T04:16:15.281Z,1008.20
2019-04-01T04:17:15.255Z,1008.19
2019-04-01T04:18:15.257Z,1008.22
2019-04-01T04:19:15.429Z,1008.18
2019-04-01T04:20:15.244Z,1008.15
2019-04-01T04:21:15.258Z,1008.19
2019-04-01T04:22:15.265Z,1008.18
2019-04-01T04:23:15.258Z,1008.12
2019-04-01T04:24:15.254Z,1008.19
2019-04-01T04:25:15.390Z,1008.23
2019-04-01T04:26:15.244Z,1008.24
2019-04-01T04:27:15.232Z,1008.23
2019-04-01T04:28:15.324Z,1008.24
2019-04-01T04:29:15.229Z,1008.23
2019-04-01T04:30:15.220Z,1008.24
2019-04-01T04:31:15.210Z,1008.25
2019-04-01T04:32:15.188Z,1008.21
2019-04-01T04:33:15.179Z,1008.28
2019-04-01T04:34:15.171Z,1008.26
2019-04-01T04:35:15.177Z,1008.17
2019-04-01T04:36:15.160Z,1008.21
2019-04-01T04:37:15.152Z,1008.25
2019-04-01T04:38:15.146Z,1008.18
2019-04-01T04:39:15.146Z,1008.24
2019-04-01T04:40:15.138Z,1008.22
2019-04-01T04:41:15.122Z,1008.24
2019-04-01T04:42:15.124Z,1008.21
2019-04-01T04:43:15.118Z,1008.23
2019-04-01T04:44:15.110Z,1008.24
2019-04-01T04:45:15.092Z,1008.21
2019-04-01T04:46:15.111Z,1008.26
2019-04-01T04:47:15.088Z,1008.21
2019-04-01T04:48:15.097Z,1008.22
2019-04-01T04:49:15.080Z,1008.26
2019-04-01T04:50:15.104Z,1008.22
2019-04-01T04:51:15.087Z,1008.22
2019-04-01T04:52:15.104Z,1008.23
2019-04-01T04:53:15.080Z,1008.30
2019-04-01T04:54:15.081Z,1008.23
2019-04-01T04:55:15.072Z,1008.21
2019-04-01T04:56:15.079Z,1008.21
2019-04-01T04:57:15.048Z,1008.24
2019-04-01T04:58:15.058Z,1008.25
2019-04-01T04:59:15.037Z,1008.28
2019-04-01T05:00:15.029Z,1008.26
2019-04-01T05:01:15.015Z,1008.24
2019-04-01T05:02:15.035Z,1008.25
2019-04-01T05:03:15.014Z,1008.24
2019-04-01T05:04:15.007Z,1008.34
2019-04-01T05:05:15.001Z,1008.30
2019-04-01T05:06:15.005Z,1008.26
2019-04-01T05:07:14.980Z,1008.27
2019-04-01T05:08:15.004Z,1008.28
2019-04-01T05:09:14.992Z,1008.29
2019-04-01T05:10:14.991Z,1008.31
2019-04-01T05:11:14.981Z,1008.31
2019-04-01T05:12:14.974Z,1008.28
2019-04-01T05:13:14.970Z,1008.33
2019-04-01T05:14:14.955Z,1008.35
2019-04-01T05:15:14.944Z,1008.33
2019-04-01T05:16:14.935Z,1008.35
2019-04-01T05:17:14.923Z,1008.34
2019-04-01T05:18:14.923Z,1008.35
2019-04-01T05:19:14.915Z,1008.39
2019-04-01T05:20:16.529Z,1008.37
2019-04-01T05:21:15.891Z,1008.34
2019-04-01T05:22:14.910Z,1008.37
2019-04-01T05:23:14.887Z,1008.36
2019-04-01T05:24:14.877Z,1008.37
2019-04-01T05:25:14.868Z,1008.35
2019-04-01T05:26:14.857Z,1008.36
2019-04-01T05:27:14.851Z,1008.36
2019-04-01T05:28:14.852Z,1008.34
2019-04-01T05:29:14.837Z,1008.33
2019-04-01T05:30:14.820Z,1008.39
2019-04-01T05:31:14.885Z,1008.41
2019-04-01T05:32:14.830Z,1008.41
2019-04-01T05:33:14.834Z,1008.43
2019-04-01T05:34:14.849Z,1008.44
2019-04-01T05:35:14.840Z,1008.47
2019-04-01T05:36:14.847Z,1008.42
2019-04-01T05:37:14.832Z,1008.45
2019-04-01T05:38:14.825Z,1008.47
2019-04-01T05:39:14.816Z,1008.48
2019-04-01T05:40:14.800Z,1008.50
2019-04-01T05:41:14.808Z,1008.51
2019-04-01T05:42:14.806Z,1008.51
2019-04-01T05:43:14.791Z,1008.50
2019-04-01T05:44:14.791Z,1008.51
2019-04-01T05:45:14.772Z,1008.51
2019-04-01T05:46:14.768Z,1008.51
2019-04-01T05:47:14.771Z,1008.51
2019-04-01T05:48:14.748Z,1008.52
2019-04-01T05:49:14.741Z,1008.55
2019-04-01T05:50:14.739Z,1008.53
2019-04-01T05:51:14.734Z,1008.54
2019-04-01T05:52:14.724Z,1008.59
2019-04-01T05:53:14.715Z,1008.58
2019-04-01T05:54:14.700Z,1008.59
2019-04-01T05:55:14.707Z,1008.60
2019-04-01T05:56:14.702Z,1008.56
2019-04-01T05:57:14.693Z,1008.62
2019-04-01T05:58:14.688Z,1008.60
2019-04-01T05:59:14.671Z,1008.60
2019-04-01T06:00:14.667Z,1008.59
2019-04-01T06:01:14.667Z,1008.59
2019-04-01T06:02:14.667Z,1008.63
2019-04-01T06:03:14.651Z,1008.65
2019-04-01T06:04:14.647Z,1008.68
2019-04-01T06:05:14.634Z,1008.70
2019-04-01T06:06:14.622Z,1008.64
2019-04-01T06:07:14.625Z,1008.62
2019-04-01T06:08:14.641Z,1008.67
2019-04-01T06:09:14.615Z,1008.66
2019-04-01T06:10:14.602Z,1008.69
2019-04-01T06:11:14.604Z,1008.71
2019-04-01T06:12:14.588Z,1008.66
2019-04-01T06:13:14.573Z,1008.65
2019-04-01T06:14:14.565Z,1008.62
2019-04-01T06:15:14.566Z,1008.65
2019-04-01T06:16:14.554Z,1008.67
2019-04-01T06:17:14.542Z,1008.71
2019-04-01T06:18:14.544Z,1008.59
2019-04-01T06:19:14.531Z,1008.67
2019-04-01T06:20:14.524Z,1008.67
2019-04-01T06:21:15.141Z,1008.62
2019-04-01T06:22:14.526Z,1008.64
2019-04-01T06:23:14.498Z,1008.60
2019-04-01T06:24:14.497Z,1008.62
2019-04-01T06:25:14.481Z,1008.59
2019-04-01T06:26:14.476Z,1008.65
2019-04-01T06:27:14.744Z,1008.61
2019-04-01T06:28:14.484Z,1008.62
2019-04-01T06:29:14.477Z,1008.65
2019-04-01T06:30:14.469Z,1008.61
2019-04-01T06:31:14.456Z,1008.61
2019-04-01T06:32:14.473Z,1008.63
2019-04-01T06:33:14.443Z,1008.65
2019-04-01T06:34:14.442Z,1008.63
2019-04-01T06:35:14.431Z,1008.62
2019-04-01T06:36:14.434Z,1008.65
2019-04-01T06:37:14.521Z,1008.61
2019-04-01T06:38:14.429Z,1008.56
2019-04-01T06:39:14.404Z,1008.58
2019-04-01T06:40:15.437Z,1008.64
2019-04-01T06:41:14.407Z,1008.59
2019-04-01T06:42:14.417Z,1008.58
2019-04-01T06:43:14.393Z,1008.61
2019-04-01T06:44:14.410Z,1008.60
2019-04-01T06:45:14.415Z,1008.59
2019-04-01T06:46:14.404Z,1008.56
2019-04-01T06:47:14.387Z,1008.58
2019-04-01T06:48:14.378Z,1008.59
2019-04-01T06:49:14.376Z,1008.55
2019-04-01T06:50:14.371Z,1008.60
2019-04-01T06:51:14.363Z,1008.61
2019-04-01T06:52:14.344Z,1008.59
2019-04-01T06:53:14.347Z,1008.58
2019-04-01T06:54:14.330Z,1008.61
2019-04-01T06:55:14.315Z,1008.60
2019-04-01T06:56:14.324Z,1008.59
2019-04-01T06:57:14.335Z,1008.58
2019-04-01T06:58:14.300Z,1008.62
2019-04-01T06:59:14.289Z,1008.55
2019-04-01T07:00:14.287Z,1008.55
2019-04-01T07:01:14.339Z,1008.60
2019-04-01T07:02:14.299Z,1008.60
2019-04-01T07:03:14.286Z,1008.60
2019-04-01T07:04:14.287Z,1008.56
2019-04-01T07:05:14.267Z,1008.60
2019-04-01T07:06:14.281Z,1008.56
2019-04-01T07:07:19.292Z,1008.54
2019-04-01T07:08:16.254Z,1008.57
2019-04-01T07:09:14.274Z,1008.57
2019-04-01T07:10:14.264Z,1008.50
2019-04-01T07:11:14.268Z,1008.50
2019-04-01T07:12:14.270Z,1008.55
2019-04-01T07:13:14.307Z,1008.56
2019-04-01T07:14:14.240Z,1008.55
2019-04-01T07:15:14.227Z,1008.54
2019-04-01T07:16:15.938Z,1008.54
2019-04-01T07:17:15.215Z,1008.54
2019-04-01T07:18:14.208Z,1008.58
2019-04-01T07:19:14.209Z,1008.51
2019-04-01T07:20:14.190Z,1008.54
2019-04-01T07:21:14.171Z,1008.47
2019-04-01T07:22:14.168Z,1008.48
2019-04-01T07:23:14.216Z,1008.51
2019-04-01T07:24:14.159Z,1008.46
2019-04-01T07:25:14.148Z,1008.47
2019-04-01T07:26:14.148Z,1008.47
2019-04-01T07:27:14.135Z,1008.47
2019-04-01T07:28:14.136Z,1008.51
2019-04-01T07:29:14.112Z,1008.48
2019-04-01T07:30:14.107Z,1008.45
2019-04-01T07:31:14.094Z,1008.42
2019-04-01T07:32:14.714Z,1008.43
2019-04-01T07:33:15.104Z,1008.46
2019-04-01T07:34:14.088Z,1008.46
2019-04-01T07:35:14.072Z,1008.47
2019-04-01T07:36:14.062Z,1008.46
2019-04-01T07:37:14.099Z,1008.45
2019-04-01T07:38:14.041Z,1008.43
2019-04-01T07:39:14.045Z,1008.45
2019-04-01T07:40:14.234Z,1008.41
2019-04-01T07:41:14.029Z,1008.40
2019-04-01T07:42:14.046Z,1008.41
2019-04-01T07:43:15.160Z,1008.39
2019-04-01T07:44:15.011Z,1008.41
2019-04-01T07:45:14.021Z,1008.41
2019-04-01T07:46:14.005Z,1008.36
2019-04-01T07:47:13.988Z,1008.42
2019-04-01T07:48:13.990Z,1008.37
2019-04-01T07:49:14.025Z,1008.37
2019-04-01T07:50:13.981Z,1008.39
2019-04-01T07:51:13.965Z,1008.33
2019-04-01T07:52:13.951Z,1008.34
2019-04-01T07:53:13.952Z,1008.32
2019-04-01T07:54:13.948Z,1008.32
2019-04-01T07:55:14.016Z,1008.28
2019-04-01T07:56:13.919Z,1008.32
2019-04-01T07:57:13.924Z,1008.29
2019-04-01T07:58:14.914Z,1008.30
2019-04-01T07:59:13.924Z,1008.34
2019-04-01T08:00:13.912Z,1008.34
2019-04-01T08:01:13.888Z,1008.31
2019-04-01T08:02:13.897Z,1008.32
2019-04-01T08:03:13.916Z,1008.32
2019-04-01T08:04:13.976Z,1008.31
2019-04-01T08:05:13.876Z,1008.30
2019-04-01T08:06:13.901Z,1008.30
2019-04-01T08:07:13.874Z,1008.35
2019-04-01T08:08:13.851Z,1008.33
2019-04-01T08:09:13.856Z,1008.31
2019-04-01T08:10:13.844Z,1008.36
2019-04-01T08:11:13.864Z,1008.26
2019-04-01T08:12:13.850Z,1008.33
2019-04-01T08:13:13.830Z,1008.31
2019-04-01T08:14:13.828Z,1008.28
2019-04-01T08:15:13.825Z,1008.32
2019-04-01T08:16:13.909Z,1008.27
2019-04-01T08:17:13.819Z,1008.31
2019-04-01T08:18:13.841Z,1008.32
2019-04-01T08:19:13.823Z,1008.31
2019-04-01T08:20:13.841Z,1008.32
2019-04-01T08:21:13.787Z,1008.28
2019-04-01T08:22:13.788Z,1008.34
2019-04-01T08:23:13.781Z,1008.32
2019-04-01T08:24:13.781Z,1008.26
2019-04-01T08:25:13.770Z,1008.31
2019-04-01T08:26:13.786Z,1008.34
2019-04-01T08:27:13.785Z,1008.34
2019-04-01T08:28:13.762Z,1008.33
2019-04-01T08:29:13.755Z,1008.30
2019-04-01T08:30:13.741Z,1008.32
2019-04-01T08:31:13.757Z,1008.31
2019-04-01T08:32:14.188Z,1008.31
2019-04-01T08:33:14.725Z,1008.40
2019-04-01T08:34:13.733Z,1008.30
2019-04-01T08:35:13.739Z,1008.31
2019-04-01T08:36:13.743Z,1008.25
2019-04-01T08:37:13.725Z,1008.22
2019-04-01T08:38:13.749Z,1008.31
2019-04-01T08:39:13.725Z,1008.28
2019-04-01T08:40:13.702Z,1008.33
2019-04-01T08:41:13.695Z,1008.24
2019-04-01T08:42:13.691Z,1008.30
2019-04-01T08:43:13.789Z,1008.30
2019-04-01T08:44:13.673Z,1008.31
2019-04-01T08:45:13.671Z,1008.23
2019-04-01T08:46:13.664Z,1008.23
2019-04-01T08:47:13.657Z,1008.30
2019-04-01T08:48:13.674Z,1008.30
2019-04-01T08:49:13.637Z,1008.30
2019-04-01T08:50:13.630Z,1008.29
2019-04-01T08:51:13.674Z,1008.17
2019-04-01T08:52:13.610Z,1008.24
2019-04-01T08:53:13.602Z,1008.26
2019-04-01T08:54:13.613Z,1008.31
2019-04-01T08:55:13.588Z,1008.23
2019-04-01T08:56:13.592Z,1008.22
2019-04-01T08:57:13.570Z,1008.25
2019-04-01T08:58:13.687Z,1008.26
2019-04-01T08:59:13.651Z,1008.23
2019-04-01T09:00:13.565Z,1008.25
2019-04-01T09:01:13.570Z,1008.22
2019-04-01T09:02:18.297Z,1008.16
2019-04-01T09:03:15.524Z,1008.15
2019-04-01T09:04:13.566Z,1008.21
2019-04-01T09:05:13.519Z,1008.07
2019-04-01T09:06:13.625Z,1008.16
2019-04-01T09:07:13.614Z,1008.18
2019-04-01T09:08:13.510Z,1008.12
2019-04-01T09:09:13.514Z,1008.15
2019-04-01T09:10:13.475Z,1008.18
2019-04-01T09:11:13.480Z,1008.14
2019-04-01T09:12:13.475Z,1008.12
2019-04-01T09:13:13.448Z,1008.07
2019-04-01T09:14:13.442Z,1008.14
2019-04-01T09:15:13.462Z,1008.02
2019-04-01T09:16:13.425Z,1008.04
2019-04-01T09:17:13.433Z,1007.96
2019-04-01T09:18:13.503Z,1007.99
2019-04-01T09:19:13.424Z,1008.01
2019-04-01T09:20:13.507Z,1008.05
2019-04-01T09:21:13.404Z,1008.12
2019-04-01T09:22:13.390Z,1008.04
2019-04-01T09:23:13.379Z,1008.09
2019-04-01T09:24:13.389Z,1008.04
2019-04-01T09:25:13.370Z,1008.03
2019-04-01T09:26:13.365Z,1007.97
2019-04-01T09:27:13.354Z,1007.92
2019-04-01T09:28:13.354Z,1007.92
2019-04-01T09:29:13.351Z,1007.90
2019-04-01T09:30:13.357Z,1007.91
2019-04-01T09:31:13.444Z,1007.87
2019-04-01T09:32:13.317Z,1007.87
2019-04-01T09:33:13.301Z,1007.85
2019-04-01T09:34:13.330Z,1007.90
2019-04-01T09:35:13.319Z,1007.90
2019-04-01T09:36:13.297Z,1007.86
2019-04-01T09:37:13.284Z,1007.91
2019-04-01T09:38:13.296Z,1007.82
2019-04-01T09:39:13.289Z,1007.85
2019-04-01T09:40:13.271Z,1007.82
2019-04-01T09:41:13.765Z,1007.84
2019-04-01T09:42:14.270Z,1007.78
2019-04-01T09:43:14.273Z,1007.83
2019-04-01T09:44:14.250Z,1007.79
2019-04-01T09:45:13.238Z,1007.76
2019-04-01T09:46:13.264Z,1007.69
2019-04-01T09:47:13.248Z,1007.73
2019-04-01T09:48:13.212Z,1007.70
2019-04-01T09:49:13.206Z,1007.70
2019-04-01T09:50:13.260Z,1007.68
2019-04-01T09:51:13.226Z,1007.71
2019-04-01T09:52:13.306Z,1007.74
2019-04-01T09:53:13.177Z,1007.74
2019-04-01T09:54:13.224Z,1007.66
2019-04-01T09:55:13.162Z,1007.67
2019-04-01T09:56:13.155Z,1007.65
2019-04-01T09:57:17.906Z,1007.66
2019-04-01T09:58:14.196Z,1007.61
2019-04-01T09:59:13.186Z,1007.64
2019-04-01T10:00:13.119Z,1007.56
2019-04-01T10:01:13.113Z,1007.68
2019-04-01T10:02:13.106Z,1007.62
2019-04-01T10:03:13.256Z,1007.62
2019-04-01T10:04:13.101Z,1007.61
2019-04-01T10:05:13.086Z,1007.50
2019-04-01T10:06:13.065Z,1007.55
2019-04-01T10:07:13.073Z,1007.55
2019-04-01T10:08:13.087Z,1007.53
2019-04-01T10:09:13.050Z,1007.51
2019-04-01T10:10:13.035Z,1007.48
2019-04-01T10:11:13.179Z,1007.45
2019-04-01T10:12:13.254Z,1007.46
2019-04-01T10:13:13.039Z,1007.46
2019-04-01T10:14:13.014Z,1007.45
2019-04-01T10:15:13.015Z,1007.41
2019-04-01T10:16:13.004Z,1007.37
2019-04-01T10:17:13.076Z,1007.36
2019-04-01T10:18:13.035Z,1007.36
2019-04-01T10:19:13.066Z,1007.38
2019-04-01T10:20:12.964Z,1007.34
2019-04-01T10:21:13.139Z,1007.41
2019-04-01T10:22:12.959Z,1007.35
2019-04-01T10:23:12.942Z,1007.37
2019-04-01T10:24:13.113Z,1007.28
2019-04-01T10:25:12.933Z,1007.30
2019-04-01T10:26:12.926Z,1007.27
2019-04-01T10:27:12.914Z,1007.30
2019-04-01T10:28:12.905Z,1007.30
2019-04-01T10:29:12.919Z,1007.20
2019-04-01T10:30:12.896Z,1007.21
2019-04-01T10:31:12.887Z,1007.21
2019-04-01T10:32:12.944Z,1007.25
2019-04-01T10:33:12.877Z,1007.23
2019-04-01T10:34:12.859Z,1007.22
2019-04-01T10:35:12.946Z,1007.15
2019-04-01T10:36:12.846Z,1007.20
2019-04-01T10:37:12.844Z,1007.21
2019-04-01T10:38:12.829Z,1007.17
2019-04-01T10:39:12.834Z,1007.19
2019-04-01T10:40:13.168Z,1007.19
2019-04-01T10:41:12.842Z,1007.13
2019-04-01T10:42:12.829Z,1007.12
2019-04-01T10:43:12.799Z,1007.11
2019-04-01T10:44:12.793Z,1007.16
2019-04-01T10:45:12.789Z,1007.08
2019-04-01T10:46:12.799Z,1007.13
2019-04-01T10:47:13.020Z,1007.14
2019-04-01T10:48:12.766Z,1007.07
2019-04-01T10:49:13.777Z,1007.09
2019-04-01T10:50:12.811Z,1007.09
2019-04-01T10:51:12.755Z,1007.01
2019-04-01T10:52:12.764Z,1007.05
2019-04-01T10:53:12.758Z,1007.06
2019-04-01T10:54:12.791Z,1007.00
2019-04-01T10:55:12.766Z,1007.05
2019-04-01T10:56:12.795Z,1007.02
2019-04-01T10:57:12.754Z,1006.97
2019-04-01T10:58:12.752Z,1006.92
2019-04-01T10:59:12.755Z,1006.84
2019-04-01T11:00:12.701Z,1006.86
2019-04-01T11:01:12.686Z,1006.83
2019-04-01T11:02:12.684Z,1006.85
2019-04-01T11:03:12.751Z,1006.90
2019-04-01T11:04:12.654Z,1006.85
2019-04-01T11:05:12.703Z,1006.86
2019-04-01T11:06:12.666Z,1006.78
2019-04-01T11:07:12.889Z,1006.80
2019-04-01T11:08:12.704Z,1006.78
2019-04-01T11:09:12.643Z,1006.80
2019-04-01T11:10:12.624Z,1006.69
2019-04-01T11:11:12.647Z,1006.75
2019-04-01T11:12:13.407Z,1006.80
2019-04-01T11:13:12.590Z,1006.83
2019-04-01T11:14:12.581Z,1006.73
2019-04-01T11:15:15.541Z,1006.77
2019-04-01T11:16:13.626Z,1006.71
2019-04-01T11:17:12.560Z,1006.69
2019-04-01T11:18:12.566Z,1006.77
2019-04-01T11:19:12.564Z,1006.73
2019-04-01T11:20:12.543Z,1006.76
2019-04-01T11:21:12.559Z,1006.78
2019-04-01T11:22:12.528Z,1006.72
2019-04-01T11:23:12.533Z,1006.72
2019-04-01T11:24:12.552Z,1006.68
2019-04-01T11:25:12.572Z,1006.65
2019-04-01T11:26:12.490Z,1006.65
2019-04-01T11:27:12.508Z,1006.67
2019-04-01T11:28:12.488Z,1006.71
2019-04-01T11:29:12.557Z,1006.66
2019-04-01T11:30:13.921Z,1006.68
2019-04-01T11:31:13.466Z,1006.66
2019-04-01T11:32:13.544Z,1006.58
2019-04-01T11:33:13.606Z,1006.62
2019-04-01T11:34:12.434Z,1006.59
2019-04-01T11:35:12.449Z,1006.54
2019-04-01T11:36:13.884Z,1006.51
2019-04-01T11:37:12.456Z,1006.57
2019-04-01T11:38:12.410Z,1006.50
2019-04-01T11:39:13.426Z,1006.48
2019-04-01T11:40:12.724Z,1006.53
2019-04-01T11:41:12.444Z,1006.50
2019-04-01T11:42:12.413Z,1006.48
2019-04-01T11:43:12.405Z,1006.42
2019-04-01T11:44:12.480Z,1006.44
2019-04-01T11:45:12.407Z,1006.46
2019-04-01T11:46:12.941Z,1006.44
2019-04-01T11:47:13.380Z,1006.43
2019-04-01T11:48:12.399Z,1006.38
2019-04-01T11:49:12.404Z,1006.30
2019-04-01T11:50:12.340Z,1006.36
2019-04-01T11:51:12.478Z,1006.35
2019-04-01T11:52:15.403Z,1006.36
2019-04-01T11:53:12.325Z,1006.38
2019-04-01T11:54:12.321Z,1006.39
2019-04-01T11:55:12.333Z,1006.32
2019-04-01T11:56:12.302Z,1006.27
2019-04-01T11:57:12.297Z,1006.27
2019-04-01T11:58:12.415Z,1006.24
2019-04-01T11:59:12.283Z,1006.22
2019-04-01T12:00:13.290Z,1006.20
2019-04-01T12:01:13.265Z,1006.17
2019-04-01T12:02:12.258Z,1006.15
2019-04-01T12:03:12.247Z,1006.16
2019-04-01T12:04:12.244Z,1006.07
2019-04-01T12:05:12.336Z,1006.05